createdAt,value
2018-03-28T00:00:22.765Z,21.00
2018-03-28T00:02:51.439Z,25.12
2018-03-28T00:05:19.834Z,28.52
2018-03-28T00:07:48.327Z,24.23
2018-03-28T00:10:16.745Z,24.42
2018-03-28T00:12:45.158Z,27.30
2018-03-28T00:15:14.338Z,24.90
2018-03-28T00:17:42.761Z,32.97
2018-03-28T00:20:11.235Z,23.70
2018-03-28T00:22:39.767Z,22.20
2018-03-28T00:25:08.146Z,23.20
2018-03-28T00:27:36.527Z,19.48
2018-03-28T00:30:04.910Z,33.20
2018-03-28T00:32:33.286Z,21.75
2018-03-28T00:35:01.637Z,21.70
2018-03-28T00:37:30.020Z,23.35
2018-03-28T00:39:58.521Z,27.62
2018-03-28T00:42:26.945Z,30.10
2018-03-28T00:44:56.755Z,23.62
2018-03-28T00:47:25.341Z,27.90
2018-03-28T00:49:53.694Z,25.55
2018-03-28T00:52:22.358Z,26.17
2018-03-28T00:54:50.741Z,26.45
2018-03-28T00:57:19.289Z,23.15
2018-03-28T00:59:47.902Z,28.98
2018-03-28T01:02:16.287Z,30.80
2018-03-28T01:04:44.661Z,33.83
2018-03-28T01:07:13.179Z,38.38
2018-03-28T01:09:41.567Z,29.92
2018-03-28T01:12:09.941Z,32.17
2018-03-28T01:14:38.339Z,34.03
2018-03-28T01:17:06.909Z,28.17
2018-03-28T01:19:35.498Z,37.45
2018-03-28T01:22:03.895Z,25.27
2018-03-28T01:24:32.260Z,32.55
2018-03-28T01:27:00.653Z,29.87
2018-03-28T01:29:29.366Z,29.05
2018-03-28T01:31:57.760Z,34.38
2018-03-28T01:34:26.169Z,36.90
2018-03-28T01:36:55.342Z,31.20
2018-03-28T01:39:23.690Z,34.67
2018-03-28T01:41:52.219Z,28.50
2018-03-28T01:44:20.668Z,30.08
2018-03-28T01:46:49.098Z,29.30
2018-03-28T01:49:17.475Z,36.25
2018-03-28T01:51:45.890Z,27.45
2018-03-28T01:54:14.347Z,28.48
2018-03-28T01:56:42.745Z,34.45
2018-03-28T01:59:11.272Z,38.78
2018-03-28T02:01:39.637Z,39.28
2018-03-28T02:04:08.037Z,34.15
2018-03-28T02:06:36.455Z,37.30
2018-03-28T02:09:05.635Z,32.08
2018-03-28T02:11:34.116Z,38.83
2018-03-28T02:14:02.510Z,37.42
2018-03-28T02:16:30.931Z,39.63
2018-03-28T02:18:59.417Z,39.22
2018-03-28T02:21:27.846Z,35.58
2018-03-28T02:23:56.233Z,37.38
2018-03-28T02:26:25.667Z,37.47
2018-03-28T02:28:54.082Z,44.28
2018-03-28T02:31:22.439Z,45.80
2018-03-28T02:33:50.805Z,42.90
2018-03-28T02:36:19.234Z,40.15
2018-03-28T02:38:48.659Z,41.28
2018-03-28T02:41:17.892Z,42.83
2018-03-28T02:43:48.059Z,42.20
2018-03-28T02:46:16.945Z,43.00
2018-03-28T02:48:46.023Z,39.30
2018-03-28T02:51:14.579Z,40.95
2018-03-28T02:53:43.105Z,34.92
2018-03-28T02:56:11.484Z,38.38
2018-03-28T02:58:39.874Z,40.92
2018-03-28T03:01:08.438Z,38.47
2018-03-28T03:03:37.944Z,40.83
2018-03-28T03:06:08.277Z,45.35
2018-03-28T03:08:36.894Z,46.25
2018-03-28T03:11:05.300Z,37.22
2018-03-28T03:13:34.545Z,44.13
2018-03-28T03:16:03.660Z,44.47
2018-03-28T03:18:32.060Z,40.88
2018-03-28T03:21:00.470Z,40.55
2018-03-28T03:23:28.992Z,53.35
2018-03-28T03:25:57.333Z,34.42
2018-03-28T03:28:26.050Z,38.70
2018-03-28T03:30:54.677Z,43.78
2018-03-28T03:33:23.079Z,36.78
2018-03-28T03:35:51.800Z,41.22
2018-03-28T03:38:20.283Z,45.17
2018-03-28T03:40:48.730Z,37.35
2018-03-28T03:43:17.186Z,40.42
2018-03-28T03:45:45.591Z,43.50
2018-03-28T03:48:13.959Z,39.92
2018-03-28T03:50:42.850Z,37.17
2018-03-28T03:53:11.315Z,40.20
2018-03-28T03:55:39.758Z,42.53
2018-03-28T03:58:08.308Z,36.67
2018-03-28T04:00:36.686Z,34.80
2018-03-28T04:03:05.096Z,35.72
2018-03-28T04:05:33.555Z,34.72
2018-03-28T04:08:01.889Z,46.53
2018-03-28T04:10:31.938Z,34.55
2018-03-28T04:13:00.415Z,30.45
2018-03-28T04:15:28.799Z,40.58
2018-03-28T04:17:57.247Z,32.80
2018-03-28T04:20:25.735Z,32.38
2018-03-28T04:22:54.139Z,38.30
2018-03-28T04:25:22.509Z,33.33
2018-03-28T04:27:51.176Z,37.72
2018-03-28T04:30:19.561Z,35.83
2018-03-28T04:32:47.997Z,36.85
2018-03-28T04:35:16.622Z,35.85
2018-03-28T04:37:45.004Z,41.30
2018-03-28T04:40:13.470Z,40.55
2018-03-28T04:42:41.918Z,39.67
2018-03-28T04:45:10.300Z,36.85
2018-03-28T04:47:38.699Z,40.97
2018-03-28T04:50:07.119Z,34.30
2018-03-28T04:52:35.656Z,40.65
2018-03-28T04:55:04.415Z,40.40
2018-03-28T04:57:32.827Z,30.48
2018-03-28T05:00:01.213Z,29.40
2018-03-28T05:02:29.637Z,38.33
2018-03-28T05:04:58.529Z,32.22
2018-03-28T05:07:26.930Z,32.42
2018-03-28T05:10:06.297Z,35.60
2018-03-28T05:12:34.716Z,32.15
2018-03-28T05:15:03.240Z,33.75
2018-03-28T05:17:31.713Z,33.40
2018-03-28T05:20:00.092Z,32.40
2018-03-28T05:22:28.583Z,31.45
2018-03-28T05:24:57.149Z,38.40
2018-03-28T05:27:25.733Z,27.23
2018-03-28T05:29:54.103Z,25.15
2018-03-28T05:32:22.543Z,31.58
2018-03-28T05:34:51.121Z,28.27
2018-03-28T05:37:19.483Z,31.75
2018-03-28T05:39:48.105Z,27.80
2018-03-28T05:42:16.522Z,29.42
2018-03-28T05:44:44.908Z,29.05
2018-03-28T05:47:13.547Z,28.48
2018-03-28T05:49:42.208Z,27.40
2018-03-28T05:52:11.119Z,29.20
2018-03-28T05:54:39.551Z,23.58
2018-03-28T05:57:08.033Z,25.95
2018-03-28T05:59:36.377Z,25.23
2018-03-28T06:02:04.868Z,26.55
2018-03-28T06:04:33.299Z,27.10
2018-03-28T06:07:02.776Z,25.27
2018-03-28T06:09:31.190Z,28.70
2018-03-28T06:11:59.591Z,21.37
2018-03-28T06:14:27.983Z,26.83
2018-03-28T06:16:56.406Z,25.52
2018-03-28T06:19:24.880Z,19.65
2018-03-28T06:21:53.288Z,27.92
2018-03-28T06:24:22.265Z,21.83
2018-03-28T06:26:50.775Z,25.15
2018-03-28T06:29:19.275Z,20.60
2018-03-28T06:31:49.326Z,43.53
2018-03-28T06:34:17.857Z,30.00
2018-03-28T06:36:46.514Z,21.17
2018-03-28T06:39:15.512Z,19.12
2018-03-28T06:41:44.179Z,25.00
2018-03-28T06:44:12.573Z,22.77
2018-03-28T06:46:41.086Z,30.50
2018-03-28T06:49:09.825Z,22.40
2018-03-28T06:51:38.253Z,22.87
2018-03-28T06:56:57.609Z,17.30
2018-03-28T06:59:25.972Z,15.60
2018-03-28T07:01:54.483Z,35.05
2018-03-28T07:04:23.000Z,16.45
2018-03-28T07:06:51.801Z,16.10
2018-03-28T07:09:20.210Z,20.00
2018-03-28T07:11:49.058Z,17.73
2018-03-28T07:14:17.490Z,20.00
2018-03-28T07:16:45.947Z,20.62
2018-03-28T07:19:15.695Z,17.37
2018-03-28T07:21:44.068Z,14.50
2018-03-28T07:24:12.503Z,17.25
2018-03-28T07:26:41.123Z,15.27
2018-03-28T07:29:09.511Z,22.30
2018-03-28T07:31:37.898Z,19.95
2018-03-28T07:34:06.274Z,17.10
2018-03-28T07:36:34.663Z,17.00
2018-03-28T07:39:03.114Z,15.45
2018-03-28T07:41:31.899Z,13.65
2018-03-28T07:44:00.247Z,19.23
2018-03-28T07:46:29.569Z,14.35
2018-03-28T07:48:58.365Z,14.18
2018-03-28T07:51:27.687Z,19.15
2018-03-28T07:53:56.144Z,14.10
2018-03-28T07:56:24.697Z,13.18
2018-03-28T07:58:53.166Z,12.68
2018-03-28T08:01:21.592Z,14.60
2018-03-28T08:03:50.702Z,13.93
2018-03-28T08:06:21.001Z,14.80
2018-03-28T08:08:49.554Z,14.87
2018-03-28T08:11:18.110Z,20.02
2018-03-28T08:13:46.619Z,14.20
2018-03-28T08:16:15.588Z,17.05
2018-03-28T08:18:44.036Z,17.12
2018-03-28T08:21:12.650Z,20.15
2018-03-28T08:23:41.127Z,15.63
2018-03-28T08:26:09.906Z,27.87
2018-03-28T08:28:38.415Z,13.57
2018-03-28T08:31:07.769Z,20.10
2018-03-28T08:33:37.873Z,27.00
2018-03-28T08:36:06.285Z,17.25
2018-03-28T08:38:34.687Z,19.33
2018-03-28T08:41:03.644Z,29.25
2018-03-28T08:43:31.999Z,14.55
2018-03-28T08:46:00.378Z,21.23
2018-03-28T08:48:28.773Z,18.55
2018-03-28T08:50:57.299Z,22.95
2018-03-28T08:53:25.677Z,16.48
2018-03-28T08:55:54.060Z,13.70
2018-03-28T08:58:27.527Z,15.75
2018-03-28T09:00:56.878Z,19.25
2018-03-28T09:03:25.350Z,21.37
2018-03-28T09:05:53.876Z,16.08
2018-03-28T09:08:22.770Z,14.85
2018-03-28T09:10:51.217Z,23.80
2018-03-28T09:13:19.678Z,18.60
2018-03-28T09:15:48.523Z,20.50
2018-03-28T09:18:17.069Z,20.88
2018-03-28T09:20:46.508Z,22.13
2018-03-28T09:23:15.073Z,19.60
2018-03-28T09:25:43.643Z,20.90
2018-03-28T09:28:12.091Z,19.30
2018-03-28T09:30:41.360Z,16.60
2018-03-28T09:33:09.746Z,23.48
2018-03-28T09:35:38.148Z,23.92
2018-03-28T09:38:07.451Z,28.25
2018-03-28T09:40:35.862Z,17.60
2018-03-28T09:43:04.352Z,18.45
2018-03-28T09:45:33.026Z,16.80
2018-03-28T09:48:01.455Z,13.95
2018-03-28T09:50:30.570Z,18.67
2018-03-28T09:52:59.666Z,14.10
2018-03-28T09:55:28.245Z,16.35
2018-03-28T09:57:56.724Z,22.55
2018-03-28T10:00:27.328Z,19.02
2018-03-28T10:03:01.218Z,18.90
2018-03-28T10:05:35.461Z,16.48
2018-03-28T10:08:04.077Z,17.12
2018-03-28T10:10:32.470Z,16.48
2018-03-28T10:13:00.908Z,16.80
2018-03-28T10:15:29.787Z,17.08
2018-03-28T10:17:58.159Z,16.77
2018-03-28T10:20:26.951Z,12.30
2018-03-28T10:22:55.652Z,17.75
2018-03-28T10:25:24.140Z,14.73
2018-03-28T10:27:53.364Z,10.55
2018-03-28T10:30:22.951Z,18.08
2018-03-28T10:32:51.828Z,13.90
2018-03-28T10:35:22.625Z,13.82
2018-03-28T10:37:51.083Z,15.48
2018-03-28T10:40:19.569Z,26.33
2018-03-28T10:42:48.044Z,14.07
2018-03-28T10:45:17.108Z,12.35
2018-03-28T10:47:45.708Z,13.57
2018-03-28T10:50:14.705Z,11.68
2018-03-28T10:52:43.188Z,10.23
2018-03-28T10:55:11.710Z,12.40
2018-03-28T10:57:40.550Z,15.65
2018-03-28T11:00:08.878Z,11.73
2018-03-28T11:02:37.342Z,17.87
2018-03-28T11:05:06.153Z,8.60
2018-03-28T11:07:34.517Z,15.13
2018-03-28T11:10:04.602Z,15.77
2018-03-28T11:12:33.177Z,10.77
2018-03-28T11:15:01.561Z,12.77
2018-03-28T11:17:30.030Z,12.13
2018-03-28T11:19:58.607Z,15.27
2018-03-28T11:22:27.860Z,19.95
2018-03-28T11:24:56.637Z,14.70
2018-03-28T11:27:25.213Z,15.15
2018-03-28T11:29:53.805Z,9.35
2018-03-28T11:32:22.477Z,9.38
2018-03-28T11:34:50.997Z,12.43
2018-03-28T11:37:19.616Z,11.70
2018-03-28T11:39:48.473Z,15.85
2018-03-28T11:42:17.182Z,11.80
2018-03-28T11:44:45.777Z,13.02
2018-03-28T11:47:14.396Z,17.50
2018-03-28T11:49:44.751Z,12.02
2018-03-28T11:52:13.530Z,14.18
2018-03-28T11:54:42.383Z,13.60
2018-03-28T11:57:11.513Z,13.20
2018-03-28T11:59:41.279Z,14.40
2018-03-28T12:02:10.219Z,11.45
2018-03-28T12:04:38.750Z,18.20
2018-03-28T12:07:07.361Z,11.63
2018-03-28T12:09:36.018Z,16.60
2018-03-28T12:12:04.530Z,11.35
2018-03-28T12:14:32.993Z,16.90
2018-03-28T12:17:01.462Z,18.25
2018-03-28T12:19:30.020Z,19.45
2018-03-28T12:21:58.659Z,18.73
2018-03-28T12:24:27.552Z,23.12
2018-03-28T12:26:56.302Z,21.98
2018-03-28T12:29:25.351Z,21.05
2018-03-28T12:31:54.009Z,16.15
2018-03-28T12:34:22.672Z,22.65
2018-03-28T12:36:51.843Z,29.98
2018-03-28T12:39:20.374Z,21.87
2018-03-28T12:41:49.278Z,20.05
2018-03-28T12:44:17.855Z,21.25
2018-03-28T12:46:46.229Z,26.52
2018-03-28T12:49:15.339Z,18.08
2018-03-28T12:51:43.960Z,18.12
2018-03-28T12:54:12.616Z,28.00
2018-03-28T12:56:42.620Z,21.00
2018-03-28T12:59:11.509Z,28.42
2018-03-28T13:01:40.188Z,23.73
2018-03-28T13:04:08.635Z,27.30
2018-03-28T13:06:37.957Z,29.08
2018-03-28T13:09:06.503Z,27.05
2018-03-28T13:11:35.255Z,22.37
2018-03-28T13:14:03.663Z,21.95
2018-03-28T13:16:32.035Z,25.10
2018-03-28T13:19:01.038Z,23.80
2018-03-28T13:21:29.958Z,22.40
2018-03-28T13:23:59.056Z,23.87
2018-03-28T13:26:27.506Z,22.23
2018-03-28T13:28:55.981Z,32.17
2018-03-28T13:31:24.415Z,21.20
2018-03-28T13:33:52.884Z,20.90
2018-03-28T13:36:21.395Z,21.85
2018-03-28T13:38:53.863Z,22.33
2018-03-28T13:41:22.479Z,16.50
2018-03-28T13:43:51.176Z,20.58
2018-03-28T13:46:20.772Z,14.80
2018-03-28T13:48:49.740Z,30.98
2018-03-28T13:51:26.920Z,22.05
2018-03-28T13:53:55.899Z,21.98
2018-03-28T13:56:25.493Z,23.52
2018-03-28T13:58:53.996Z,22.50
2018-03-28T14:01:22.512Z,23.00
2018-03-28T14:03:51.181Z,19.92
2018-03-28T14:06:20.206Z,19.65
2018-03-28T14:08:48.938Z,25.25
2018-03-28T14:11:18.642Z,19.80
2018-03-28T14:13:47.459Z,28.33
2018-03-28T14:16:16.459Z,21.77
2018-03-28T14:18:44.877Z,24.40
2018-03-28T14:21:13.634Z,26.30
2018-03-28T14:23:42.328Z,25.15
2018-03-28T14:26:10.962Z,26.02
2018-03-28T14:28:42.672Z,35.47
2018-03-28T14:31:11.512Z,21.37
2018-03-28T14:33:40.448Z,31.87
2018-03-28T14:36:10.627Z,34.72
2018-03-28T14:38:39.032Z,32.10
2018-03-28T14:41:07.615Z,37.88
2018-03-28T14:43:36.772Z,36.50
2018-03-28T14:46:05.199Z,43.33
2018-03-28T14:48:34.612Z,40.63
2018-03-28T14:51:03.348Z,34.13
2018-03-28T14:53:31.916Z,34.30
2018-03-28T14:56:00.347Z,34.80
2018-03-28T14:58:28.900Z,47.58
2018-03-28T15:00:57.278Z,36.65
2018-03-28T15:03:26.365Z,31.80
2018-03-28T15:05:55.387Z,35.70
2018-03-28T15:08:23.998Z,36.10
2018-03-28T15:10:52.432Z,33.80
2018-03-28T15:13:21.933Z,27.87
2018-03-28T15:15:50.360Z,46.90
2018-03-28T15:18:18.946Z,32.58
2018-03-28T15:20:48.655Z,33.38
2018-03-28T15:23:17.812Z,38.50
2018-03-28T15:25:46.348Z,36.70
2018-03-28T15:28:15.301Z,35.15
2018-03-28T15:30:44.679Z,40.03
2018-03-28T15:33:13.256Z,38.45
2018-03-28T15:35:42.149Z,34.00
2018-03-28T15:38:25.648Z,37.95
2018-03-28T15:41:01.770Z,41.53
2018-03-28T15:43:31.618Z,46.47
2018-03-28T15:46:00.589Z,41.88
2018-03-28T15:48:30.232Z,36.55
2018-03-28T15:50:58.679Z,42.20
2018-03-28T15:53:27.058Z,40.22
2018-03-28T15:55:56.520Z,37.50
2018-03-28T15:58:25.156Z,43.00
2018-03-28T16:00:54.874Z,37.40
2018-03-28T16:03:24.299Z,44.38
2018-03-28T16:05:53.036Z,46.53
2018-03-28T16:08:21.754Z,33.95
2018-03-28T16:10:50.169Z,36.65
2018-03-28T16:13:18.659Z,33.78
2018-03-28T16:15:47.585Z,35.00
2018-03-28T16:18:16.876Z,35.70
2018-03-28T16:20:45.672Z,39.20
2018-03-28T16:23:18.111Z,31.17
2018-03-28T16:25:46.974Z,34.10
2018-03-28T16:28:15.704Z,28.40
2018-03-28T16:30:44.856Z,27.92
2018-03-28T16:33:14.133Z,29.70
2018-03-28T16:35:43.460Z,28.27
2018-03-28T16:38:12.953Z,23.90
2018-03-28T16:40:41.652Z,24.27
2018-03-28T16:43:12.234Z,43.10
2018-03-28T16:45:42.964Z,31.55
2018-03-28T16:48:11.554Z,27.15
2018-03-28T16:50:40.235Z,21.35
2018-03-28T16:53:09.140Z,24.40
2018-03-28T16:55:37.608Z,28.83
2018-03-28T16:58:05.975Z,26.87
2018-03-28T17:00:34.625Z,21.75
2018-03-28T17:03:03.024Z,23.27
2018-03-28T17:05:31.651Z,20.50
2018-03-28T17:08:00.218Z,22.55
2018-03-28T17:10:28.889Z,24.77
2018-03-28T17:12:58.154Z,22.73
2018-03-28T17:15:27.124Z,25.15
2018-03-28T17:17:56.252Z,23.40
2018-03-28T17:20:24.990Z,22.33
2018-03-28T17:22:55.702Z,24.00
2018-03-28T17:25:24.725Z,24.90
2018-03-28T17:27:53.207Z,22.42
2018-03-28T17:30:21.943Z,23.40
2018-03-28T17:32:50.843Z,27.95
2018-03-28T17:35:20.040Z,29.02
2018-03-28T17:37:48.808Z,23.30
2018-03-28T17:40:17.511Z,28.20
2018-03-28T17:42:46.463Z,29.77
2018-03-28T17:45:16.012Z,33.13
2018-03-28T17:47:45.419Z,28.60
2018-03-28T17:50:14.621Z,31.52
2018-03-28T17:52:45.122Z,36.05
2018-03-28T17:55:14.461Z,25.08
2018-03-28T17:57:43.261Z,35.25
2018-03-28T18:00:12.103Z,33.33
2018-03-28T18:02:41.855Z,34.25
2018-03-28T18:05:10.402Z,32.05
2018-03-28T18:07:39.075Z,29.60
2018-03-28T18:10:08.002Z,37.88
2018-03-28T18:12:36.648Z,36.10
2018-03-28T18:15:05.045Z,31.20
2018-03-28T18:17:33.543Z,35.97
2018-03-28T18:20:02.044Z,40.17
2018-03-28T18:22:30.616Z,41.88
2018-03-28T18:24:59.103Z,41.45
2018-03-28T18:27:27.774Z,47.33
2018-03-28T18:29:57.271Z,42.60
2018-03-28T18:32:26.178Z,41.37
2018-03-28T18:34:55.664Z,44.70
2018-03-28T18:37:24.514Z,37.90
2018-03-28T18:39:56.240Z,42.20
2018-03-28T18:42:26.607Z,40.92
2018-03-28T18:44:55.042Z,42.78
2018-03-28T18:47:23.976Z,43.90
2018-03-28T18:49:54.527Z,50.42
2018-03-28T18:52:25.553Z,51.92
2018-03-28T18:54:55.757Z,52.13
2018-03-28T18:57:24.666Z,46.83
2018-03-28T18:59:53.205Z,52.08
2018-03-28T19:02:23.156Z,50.00
2018-03-28T19:04:52.373Z,46.15
2018-03-28T19:07:21.296Z,45.60
2018-03-28T19:09:50.046Z,43.20
2018-03-28T19:12:18.622Z,41.17
2018-03-28T19:14:47.253Z,50.15
2018-03-28T19:17:16.614Z,48.10
2018-03-28T19:19:49.943Z,51.15
2018-03-28T19:22:19.378Z,49.85
2018-03-28T19:24:47.986Z,48.17
2018-03-28T19:27:17.492Z,45.90
2018-03-28T19:29:47.107Z,42.90
2018-03-28T19:32:15.683Z,48.97
2018-03-28T19:34:44.274Z,55.08
2018-03-28T19:37:12.941Z,42.53
2018-03-28T19:39:42.904Z,38.22
2018-03-28T19:42:11.766Z,40.67
2018-03-28T19:44:41.276Z,47.03
2018-03-28T19:47:09.953Z,46.20
2018-03-28T19:49:38.409Z,44.10
2018-03-28T19:52:06.854Z,39.65
2018-03-28T19:54:35.333Z,40.05
2018-03-28T19:57:03.737Z,44.85
2018-03-28T19:59:32.927Z,41.55
2018-03-28T20:02:02.510Z,36.42
2018-03-28T20:04:30.905Z,32.88
2018-03-28T20:06:59.866Z,40.38
2018-03-28T20:09:28.286Z,45.42
2018-03-28T20:11:56.823Z,38.47
2018-03-28T20:14:25.355Z,40.40
2018-03-28T20:16:54.060Z,41.88
2018-03-28T20:19:22.510Z,38.80
2018-03-28T20:21:51.320Z,36.47
2018-03-28T20:24:19.841Z,46.83
2018-03-28T20:26:48.546Z,34.95
2018-03-28T20:29:17.618Z,36.97
2018-03-28T20:31:46.181Z,36.15
2018-03-28T20:34:14.611Z,40.50
2018-03-28T20:36:44.196Z,42.13
2018-03-28T20:39:14.006Z,44.95
2018-03-28T20:41:51.131Z,47.97
2018-03-28T20:44:22.702Z,36.05
2018-03-28T20:46:52.347Z,37.83
2018-03-28T20:49:20.963Z,38.67
2018-03-28T20:51:49.565Z,40.45
2018-03-28T20:54:18.254Z,41.70
2018-03-28T20:56:46.789Z,48.38
2018-03-28T20:59:15.837Z,47.28
2018-03-28T21:01:44.671Z,54.50
2018-03-28T21:04:13.665Z,43.72
2018-03-28T21:06:45.637Z,47.03
2018-03-28T21:09:14.825Z,43.35
2018-03-28T21:11:43.416Z,52.60
2018-03-28T21:14:12.624Z,57.38
2018-03-28T21:16:41.044Z,45.78
2018-03-28T21:19:09.681Z,56.72
2018-03-28T21:21:38.321Z,49.25
2018-03-28T21:24:06.930Z,50.92
2018-03-28T21:26:36.511Z,45.42
2018-03-28T21:29:04.877Z,49.25
2018-03-28T21:31:33.596Z,59.55
2018-03-28T21:34:02.000Z,70.28
2018-03-28T21:36:30.366Z,40.95
2018-03-28T21:38:58.752Z,67.70
2018-03-28T21:41:27.203Z,58.58
2018-03-28T21:43:55.553Z,57.40
2018-03-28T21:46:24.070Z,66.07
2018-03-28T21:48:52.572Z,73.45
2018-03-28T21:51:21.245Z,57.20
2018-03-28T21:53:50.008Z,69.78
2018-03-28T21:56:20.730Z,70.18
2018-03-28T21:58:49.273Z,72.18
2018-03-28T22:01:18.981Z,65.85
2018-03-28T22:03:47.520Z,66.25
2018-03-28T22:06:16.106Z,66.20
2018-03-28T22:08:45.754Z,75.20
2018-03-28T22:11:14.192Z,83.32
2018-03-28T22:13:49.093Z,68.32
2018-03-28T22:16:17.561Z,72.80
2018-03-28T22:18:46.015Z,61.40
2018-03-28T22:21:14.862Z,70.85
2018-03-28T22:23:43.420Z,65.62
2018-03-28T22:26:12.113Z,67.78
2018-03-28T22:28:41.564Z,64.28
2018-03-28T22:31:09.975Z,66.03
2018-03-28T22:33:39.457Z,78.07
2018-03-28T22:36:07.879Z,73.97
2018-03-28T22:38:36.230Z,77.32
2018-03-28T22:41:04.650Z,66.93
2018-03-28T22:43:33.129Z,87.12
2018-03-28T22:46:01.489Z,70.60
2018-03-28T22:48:29.865Z,66.43
2018-03-28T22:50:59.302Z,80.12
2018-03-28T22:53:27.720Z,68.37
2018-03-28T22:55:56.090Z,86.97
2018-03-28T22:58:24.513Z,79.03
2018-03-28T23:00:52.954Z,74.37
2018-03-28T23:03:21.538Z,80.95
2018-03-28T23:05:50.253Z,85.22
2018-03-28T23:08:18.739Z,65.75
2018-03-28T23:10:47.289Z,81.53
2018-03-28T23:13:17.842Z,74.37
2018-03-28T23:15:46.293Z,73.87
2018-03-28T23:18:15.462Z,73.82
2018-03-28T23:20:45.109Z,79.95
2018-03-28T23:23:13.691Z,79.07
2018-03-28T23:25:42.226Z,76.22
2018-03-28T23:28:10.777Z,78.97
2018-03-28T23:30:39.165Z,60.78
2018-03-28T23:33:07.567Z,73.97
2018-03-28T23:35:35.983Z,73.20
2018-03-28T23:38:04.324Z,46.97
2018-03-28T23:40:32.732Z,79.18
2018-03-28T23:43:01.653Z,65.18
2018-03-28T23:45:30.075Z,66.28
2018-03-28T23:47:58.471Z,71.35
2018-03-28T23:50:27.772Z,63.08
2018-03-28T23:52:56.189Z,61.13
2018-03-28T23:55:24.585Z,74.57
2018-03-28T23:57:53.628Z,63.78
